createdAt,value
2022-09-01T00:00:30.134Z,18.42
2022-09-01T00:03:04.663Z,18.40
2022-09-01T00:05:33.298Z,18.39
2022-09-01T00:08:01.795Z,18.38
2022-09-01T00:10:30.231Z,18.32
2022-09-01T00:12:58.810Z,18.25
2022-09-01T00:15:27.609Z,18.21
2022-09-01T00:17:56.295Z,18.18
2022-09-01T00:20:24.675Z,18.12
2022-09-01T00:22:52.924Z,18.07
2022-09-01T00:25:24.848Z,18.04
2022-09-01T00:27:53.276Z,18.03
2022-09-01T00:30:22.760Z,18.02
2022-09-01T00:32:51.203Z,18.02
2022-09-01T00:35:20.433Z,18.01
2022-09-01T00:37:48.983Z,17.99
2022-09-01T00:40:18.500Z,17.98
2022-09-01T00:42:49.423Z,17.96
2022-09-01T00:45:19.498Z,17.94
2022-09-01T00:47:50.056Z,17.94
2022-09-01T00:50:20.426Z,17.95
2022-09-01T00:52:53.130Z,17.97
2022-09-01T00:55:33.181Z,17.98
2022-09-01T00:58:04.080Z,17.96
2022-09-01T01:00:38.552Z,17.90
2022-09-01T01:03:13.194Z,17.75
2022-09-01T01:05:54.201Z,17.65
2022-09-01T01:08:36.442Z,17.61
2022-09-01T01:11:18.072Z,17.61
2022-09-01T01:13:54.939Z,17.62
2022-09-01T01:16:26.744Z,17.61
2022-09-01T01:18:55.795Z,17.62
2022-09-01T01:21:55.234Z,17.59
2022-09-01T01:24:34.326Z,17.56
2022-09-01T01:27:03.670Z,17.49
2022-09-01T01:29:38.144Z,17.46
2022-09-01T01:32:13.485Z,17.44
2022-09-01T01:34:43.726Z,17.42
2022-09-01T01:37:14.571Z,17.42
2022-09-01T01:39:44.488Z,17.43
2022-09-01T01:42:12.977Z,17.43
2022-09-01T01:44:42.795Z,17.45
2022-09-01T01:47:13.552Z,17.42
2022-09-01T01:49:44.949Z,17.40
2022-09-01T01:52:17.664Z,17.31
2022-09-01T01:54:47.587Z,17.24
2022-09-01T01:57:18.013Z,17.22
2022-09-01T01:59:46.382Z,17.20
2022-09-01T02:02:14.731Z,17.18
2022-09-01T02:04:43.610Z,17.20
2022-09-01T02:07:13.986Z,17.21
2022-09-01T02:09:46.255Z,17.22
2022-09-01T02:12:19.792Z,17.21
2022-09-01T02:14:48.754Z,17.19
2022-09-01T02:17:18.046Z,17.18
2022-09-01T02:19:47.558Z,17.17
2022-09-01T02:22:15.861Z,17.14
2022-09-01T02:24:49.341Z,17.14
2022-09-01T02:27:25.978Z,17.13
2022-09-01T02:29:55.712Z,17.13
2022-09-01T02:32:24.217Z,17.14
2022-09-01T02:35:01.570Z,17.14
2022-09-01T02:37:29.887Z,17.13
2022-09-01T02:39:58.834Z,17.11
2022-09-01T02:42:29.369Z,17.07
2022-09-01T02:44:58.792Z,17.06
2022-09-01T02:47:29.746Z,17.05
2022-09-01T02:50:01.294Z,17.03
2022-09-01T02:52:35.687Z,17.02
2022-09-01T02:55:05.179Z,17.00
2022-09-01T02:57:36.114Z,16.96
2022-09-01T03:00:20.904Z,16.93
2022-09-01T03:02:53.085Z,16.92
2022-09-01T03:05:27.160Z,16.92
2022-09-01T03:07:58.768Z,16.93
2022-09-01T03:10:36.339Z,16.94
2022-09-01T03:13:10.573Z,16.94
2022-09-01T03:15:39.421Z,16.94
2022-09-01T03:18:10.245Z,16.90
2022-09-01T03:20:43.620Z,16.86
2022-09-01T03:23:19.236Z,16.85
2022-09-01T03:25:48.865Z,16.81
2022-09-01T03:28:17.596Z,16.82
2022-09-01T03:30:51.263Z,16.81
2022-09-01T03:33:21.505Z,16.82
2022-09-01T03:35:50.414Z,16.80
2022-09-01T03:38:24.314Z,16.76
2022-09-01T03:41:02.287Z,16.71
2022-09-01T03:43:36.328Z,16.71
2022-09-01T03:46:05.723Z,16.71
2022-09-01T03:48:36.013Z,16.70
2022-09-01T03:51:04.760Z,16.70
2022-09-01T03:53:38.396Z,16.71
2022-09-01T03:56:07.485Z,16.71
2022-09-01T03:58:35.847Z,16.70
2022-09-01T04:01:05.316Z,16.70
2022-09-01T04:03:39.841Z,16.72
2022-09-01T04:06:10.765Z,16.73
2022-09-01T04:08:39.623Z,16.74
2022-09-01T04:11:18.962Z,16.77
2022-09-01T04:13:51.118Z,16.80
2022-09-01T04:16:52.673Z,16.80
2022-09-01T04:19:26.443Z,16.77
2022-09-01T04:22:02.353Z,16.73
2022-09-01T04:24:46.138Z,16.73
2022-09-01T04:27:18.366Z,16.72
2022-09-01T04:29:47.836Z,16.74
2022-09-01T04:32:17.198Z,16.77
2022-09-01T04:34:51.097Z,16.76
2022-09-01T04:37:21.878Z,16.74
2022-09-01T04:40:00.192Z,16.70
2022-09-01T04:42:32.645Z,16.72
2022-09-01T04:45:10.731Z,16.73
2022-09-01T04:47:45.677Z,16.73
2022-09-01T04:50:18.648Z,16.75
2022-09-01T04:53:06.953Z,16.74
2022-09-01T04:55:49.834Z,16.75
2022-09-01T04:58:20.851Z,16.78
2022-09-01T05:00:53.545Z,16.82
2022-09-01T05:03:24.816Z,16.87
2022-09-01T05:06:04.018Z,16.89
2022-09-01T05:08:35.357Z,16.89
2022-09-01T05:11:08.218Z,16.90
2022-09-01T05:13:39.877Z,16.93
2022-09-01T05:16:13.470Z,16.92
2022-09-01T05:18:47.895Z,16.92
2022-09-01T05:21:22.456Z,16.95
2022-09-01T05:23:52.065Z,16.98
2022-09-01T05:26:26.319Z,17.00
2022-09-01T05:29:10.946Z,17.07
2022-09-01T05:31:45.500Z,17.16
2022-09-01T05:34:26.521Z,17.32
2022-09-01T05:37:00.004Z,17.50
2022-09-01T05:39:29.561Z,17.53
2022-09-01T05:41:59.852Z,17.59
2022-09-01T05:44:28.263Z,17.63
2022-09-01T05:47:00.244Z,17.69
2022-09-01T05:49:31.737Z,17.77
2022-09-01T05:52:00.692Z,17.81
2022-09-01T05:54:32.687Z,17.83
2022-09-01T05:57:17.397Z,17.80
2022-09-01T05:59:54.239Z,17.89
2022-09-01T06:02:27.592Z,17.96
2022-09-01T06:04:57.553Z,17.95
2022-09-01T06:07:30.500Z,17.91
2022-09-01T06:10:01.051Z,17.88
2022-09-01T06:12:29.324Z,17.93
2022-09-01T06:14:59.275Z,17.99
2022-09-01T06:17:29.018Z,18.16
2022-09-01T06:19:59.718Z,18.31
2022-09-01T06:22:29.208Z,18.56
2022-09-01T06:25:02.748Z,18.82
2022-09-01T06:27:38.933Z,18.86
2022-09-01T06:30:15.306Z,18.96
2022-09-01T06:32:51.709Z,19.12
2022-09-01T06:35:22.130Z,19.20
2022-09-01T06:37:50.524Z,19.26
2022-09-01T06:40:36.171Z,19.21
2022-09-01T06:43:08.165Z,19.12
2022-09-01T06:45:49.963Z,19.16
2022-09-01T06:48:18.738Z,19.24
2022-09-01T06:53:39.103Z,19.34
2022-09-01T06:56:12.772Z,19.56
2022-09-01T06:58:47.270Z,19.71
2022-09-01T07:01:18.169Z,19.83
2022-09-01T07:03:51.271Z,19.80
2022-09-01T07:09:48.067Z,19.92
2022-09-01T07:12:37.729Z,19.96
2022-09-01T07:17:58.446Z,20.08
2022-09-01T07:20:33.516Z,20.18
2022-09-01T07:23:04.155Z,20.27
2022-09-01T07:25:48.273Z,20.33
2022-09-01T07:28:39.938Z,20.44
2022-09-01T07:39:48.499Z,20.53
2022-09-01T07:45:47.132Z,20.57
2022-09-01T07:49:02.531Z,20.74
2022-09-01T07:54:03.746Z,21.25
2022-09-01T07:56:36.299Z,21.30
2022-09-01T07:59:14.749Z,21.37
2022-09-01T08:02:24.778Z,21.55
2022-09-01T08:04:53.410Z,21.65
2022-09-01T08:07:21.920Z,21.67
2022-09-01T08:09:50.319Z,21.68
2022-09-01T08:12:18.786Z,21.74
2022-09-01T08:17:51.644Z,22.03
2022-09-01T08:20:21.337Z,22.22
2022-09-01T08:23:19.836Z,22.37
2022-09-01T08:25:50.843Z,22.54
2022-09-01T08:28:26.549Z,22.65
2022-09-01T08:30:56.562Z,22.67
2022-09-01T08:33:27.304Z,22.57
2022-09-01T08:35:57.402Z,22.68
2022-09-01T08:38:27.074Z,22.68
2022-09-01T08:40:59.314Z,22.46
2022-09-01T08:44:05.536Z,22.44
2022-09-01T08:46:40.009Z,22.18
2022-09-01T08:49:27.832Z,22.40
2022-09-01T08:52:48.146Z,22.55
2022-09-01T08:55:39.332Z,22.70
2022-09-01T08:58:18.451Z,22.35
2022-09-01T09:01:17.835Z,22.01
2022-09-01T09:04:20.521Z,22.29
2022-09-01T09:07:10.925Z,22.32
2022-09-01T09:09:54.371Z,22.13
2022-09-01T09:12:22.657Z,22.43
2022-09-01T09:15:01.556Z,22.54
2022-09-01T09:17:37.570Z,22.50
2022-09-01T09:20:06.967Z,22.73
2022-09-01T09:22:35.285Z,23.01
2022-09-01T09:25:19.293Z,23.12
2022-09-01T09:28:00.561Z,23.17
2022-09-01T09:30:32.580Z,23.40
2022-09-01T09:33:49.778Z,23.55
2022-09-01T09:36:37.289Z,23.82
2022-09-01T09:39:17.562Z,23.86
2022-09-01T09:42:13.621Z,23.83
2022-09-01T09:44:51.281Z,23.97
2022-09-01T09:47:44.926Z,24.03
2022-09-01T09:50:24.017Z,23.91
2022-09-01T09:53:10.444Z,23.70
2022-09-01T09:56:13.864Z,23.66
2022-09-01T09:58:44.928Z,23.46
2022-09-01T10:01:29.849Z,23.62
2022-09-01T10:04:03.832Z,23.83
2022-09-01T10:06:45.435Z,23.85
2022-09-01T10:09:38.638Z,23.91
2022-09-01T10:12:07.214Z,24.09
2022-09-01T10:14:51.974Z,23.98
2022-09-01T10:17:43.918Z,24.02
2022-09-01T10:20:21.216Z,24.40
2022-09-01T10:22:50.950Z,24.86
2022-09-01T10:25:29.146Z,25.21
2022-09-01T10:28:20.941Z,25.12
2022-09-01T10:30:52.871Z,24.80
2022-09-01T10:33:22.934Z,24.59
2022-09-01T10:35:54.025Z,24.29
2022-09-01T10:38:25.676Z,24.16
2022-09-01T10:41:15.769Z,24.19
2022-09-01T10:43:50.031Z,24.32
2022-09-01T10:46:25.850Z,24.33
2022-09-01T10:49:03.032Z,24.26
2022-09-01T10:51:49.869Z,24.27
2022-09-01T10:54:57.020Z,24.40
2022-09-01T10:57:43.719Z,24.43
2022-09-01T11:00:39.837Z,24.49
2022-09-01T11:03:30.594Z,24.43
2022-09-01T11:06:14.642Z,24.24
2022-09-01T11:08:59.725Z,24.47
2022-09-01T11:11:41.904Z,24.54
2022-09-01T11:14:23.859Z,24.42
2022-09-01T11:17:16.803Z,24.31
2022-09-01T11:20:13.754Z,24.37
2022-09-01T11:22:46.707Z,24.90
2022-09-01T11:25:39.596Z,25.01
2022-09-01T11:28:15.596Z,24.99
2022-09-01T11:30:59.184Z,25.35
2022-09-01T11:34:02.619Z,25.21
2022-09-01T11:36:48.817Z,25.26
2022-09-01T11:39:20.928Z,25.59
2022-09-01T11:42:19.351Z,25.83
2022-09-01T11:45:02.306Z,26.08
2022-09-01T11:47:44.991Z,26.28
2022-09-01T11:50:28.011Z,26.39
2022-09-01T11:53:15.980Z,26.27
2022-09-01T11:55:51.739Z,26.19
2022-09-01T11:58:30.977Z,26.07
2022-09-01T12:01:31.504Z,26.39
2022-09-01T12:04:27.772Z,26.37
2022-09-01T12:07:11.086Z,26.24
2022-09-01T12:09:44.520Z,26.61
2022-09-01T12:12:33.911Z,27.11
2022-09-01T12:15:27.522Z,27.44
2022-09-01T12:18:15.369Z,27.57
2022-09-01T12:20:43.999Z,27.69
2022-09-01T12:23:30.752Z,28.41
2022-09-01T12:26:05.618Z,28.90
2022-09-01T12:28:35.547Z,28.84
2022-09-01T12:31:07.778Z,29.24
2022-09-01T12:33:37.226Z,29.44
2022-09-01T12:36:21.115Z,29.38
2022-09-01T12:38:50.405Z,29.40
2022-09-01T12:41:39.042Z,29.25
2022-09-01T12:44:29.963Z,28.97
2022-09-01T12:47:34.482Z,28.45
2022-09-01T12:50:16.423Z,27.86
2022-09-01T12:52:56.778Z,27.46
2022-09-01T12:58:25.974Z,26.43
2022-09-01T13:01:08.774Z,26.11
2022-09-01T13:04:26.600Z,26.04
2022-09-01T13:07:00.976Z,26.74
2022-09-01T13:09:30.237Z,27.18
2022-09-01T13:12:21.789Z,27.29
2022-09-01T13:14:51.040Z,26.99
2022-09-01T13:17:21.147Z,26.60
2022-09-01T13:19:49.857Z,26.16
2022-09-01T13:22:18.559Z,25.81
2022-09-01T13:24:47.251Z,25.70
2022-09-01T13:27:23.372Z,25.79
2022-09-01T13:29:52.773Z,25.74
2022-09-01T13:32:24.234Z,25.60
2022-09-01T13:34:54.374Z,25.29
2022-09-01T13:37:24.052Z,24.85
2022-09-01T13:39:52.868Z,24.75
2022-09-01T13:42:22.842Z,24.67
2022-09-01T13:44:57.014Z,24.61
2022-09-01T13:47:30.018Z,24.47
2022-09-01T13:50:10.591Z,24.39
2022-09-01T13:52:54.977Z,24.25
2022-09-01T13:55:34.772Z,24.10
2022-09-01T13:58:03.503Z,23.86
2022-09-01T14:00:37.818Z,23.75
2022-09-01T14:03:19.897Z,23.66
2022-09-01T14:05:50.252Z,23.63
2022-09-01T14:08:22.884Z,23.57
2022-09-01T14:10:54.460Z,23.46
2022-09-01T14:13:25.163Z,23.42
2022-09-01T14:15:54.982Z,23.37
2022-09-01T14:18:23.843Z,23.23
2022-09-01T14:20:52.633Z,23.10
2022-09-01T14:23:21.322Z,23.02
2022-09-01T14:25:52.126Z,22.92
2022-09-01T14:28:23.075Z,22.84
2022-09-01T14:33:24.473Z,22.78
2022-09-01T14:35:54.529Z,22.79
2022-09-01T14:38:23.272Z,22.76
2022-09-01T14:40:52.799Z,22.75
2022-09-01T14:43:22.141Z,22.75
2022-09-01T14:45:50.905Z,22.74
2022-09-01T14:48:21.003Z,22.74
2022-09-01T14:50:51.165Z,22.69
2022-09-01T14:53:20.178Z,22.65
2022-09-01T14:55:51.482Z,22.65
2022-09-01T14:58:25.987Z,22.68
2022-09-01T15:01:03.606Z,22.66
2022-09-01T15:03:36.001Z,22.66
2022-09-01T15:06:04.749Z,22.62
2022-09-01T15:08:33.235Z,22.58
2022-09-01T15:11:01.717Z,22.54
2022-09-01T15:13:30.171Z,22.49
2022-09-01T15:15:58.942Z,22.46
2022-09-01T15:18:27.554Z,22.40
2022-09-01T15:20:56.153Z,22.31
2022-09-01T15:23:26.371Z,22.21
2022-09-01T15:25:55.774Z,22.12
2022-09-01T15:28:25.786Z,22.01
2022-09-01T15:30:54.669Z,21.94
2022-09-01T15:33:23.133Z,21.88
2022-09-01T15:35:52.109Z,21.81
2022-09-01T15:38:24.977Z,21.70
2022-09-01T15:40:58.535Z,21.63
2022-09-01T15:43:31.174Z,21.58
2022-09-01T15:46:02.232Z,21.53
2022-09-01T15:48:31.101Z,21.47
2022-09-01T15:51:28.132Z,21.40
2022-09-01T15:54:08.604Z,21.32
2022-09-01T15:56:38.025Z,21.23
2022-09-01T15:59:08.659Z,21.21
2022-09-01T16:01:42.487Z,21.16
2022-09-01T16:04:19.889Z,21.08
2022-09-01T16:06:51.275Z,21.06
2022-09-01T16:09:21.380Z,21.01
2022-09-01T16:11:50.247Z,20.97
2022-09-01T16:14:21.036Z,20.94
2022-09-01T16:17:08.503Z,20.90
2022-09-01T16:19:46.242Z,20.82
2022-09-01T16:22:36.044Z,20.80
2022-09-01T16:25:24.272Z,20.76
2022-09-01T16:27:55.288Z,20.72
2022-09-01T16:30:28.871Z,20.66
2022-09-01T16:33:03.001Z,20.63
2022-09-01T16:35:48.574Z,20.58
2022-09-01T16:38:29.567Z,20.51
2022-09-01T16:41:54.405Z,20.47
2022-09-01T16:45:16.220Z,20.39
2022-09-01T16:48:12.491Z,20.32
2022-09-01T16:51:17.900Z,20.29
2022-09-01T16:54:21.234Z,20.22
2022-09-01T16:57:32.896Z,20.18
2022-09-01T17:00:09.654Z,20.13
2022-09-01T17:03:20.702Z,20.08
2022-09-01T17:06:03.816Z,20.01
2022-09-01T17:08:43.131Z,19.97
2022-09-01T17:11:33.106Z,19.94
2022-09-01T17:14:03.456Z,19.94
2022-09-01T17:16:44.591Z,19.93
2022-09-01T17:19:20.364Z,19.90
2022-09-01T17:22:00.621Z,19.87
2022-09-01T17:24:44.862Z,19.84
2022-09-01T17:27:18.851Z,19.77
2022-09-01T17:29:54.343Z,19.73
2022-09-01T17:32:41.759Z,19.69
2022-09-01T17:36:02.814Z,19.66
2022-09-01T17:38:36.756Z,19.60
2022-09-01T17:41:35.323Z,19.59
2022-09-01T17:44:45.654Z,19.53
2022-09-01T17:47:43.933Z,19.48
2022-09-01T17:50:26.895Z,19.43
2022-09-01T17:53:26.058Z,19.40
2022-09-01T17:56:13.865Z,19.35
2022-09-01T17:58:56.609Z,19.27
2022-09-01T18:01:44.766Z,19.20
2022-09-01T18:04:28.487Z,19.13
2022-09-01T18:07:04.692Z,19.09
2022-09-01T18:09:56.309Z,19.04
2022-09-01T18:12:37.571Z,19.00
2022-09-01T18:15:11.006Z,18.94
2022-09-01T18:17:48.789Z,18.90
2022-09-01T18:20:45.005Z,18.84
2022-09-01T18:23:20.361Z,18.80
2022-09-01T18:26:03.527Z,18.77
2022-09-01T18:28:32.297Z,18.74
2022-09-01T18:31:27.349Z,18.74
2022-09-01T18:34:34.725Z,18.72
2022-09-01T18:37:18.647Z,18.68
2022-09-01T18:40:09.614Z,18.65
2022-09-01T18:42:56.023Z,18.64
2022-09-01T18:45:50.166Z,18.62
2022-09-01T18:48:50.014Z,18.58
2022-09-01T18:51:32.045Z,18.54
2022-09-01T18:54:30.627Z,18.51
2022-09-01T18:57:07.068Z,18.49
2022-09-01T19:00:18.213Z,18.45
2022-09-01T19:03:10.776Z,18.41
2022-09-01T19:06:12.939Z,18.38
2022-09-01T19:09:26.058Z,18.35
2022-09-01T19:12:38.354Z,18.31
2022-09-01T19:15:20.997Z,18.28
2022-09-01T19:18:04.521Z,18.28
2022-09-01T19:20:47.093Z,18.27
2022-09-01T19:23:53.154Z,18.25
2022-09-01T19:26:26.321Z,18.23
2022-09-01T19:29:04.715Z,18.22
2022-09-01T19:31:39.918Z,18.19
2022-09-01T19:34:18.178Z,18.16
2022-09-01T19:36:57.200Z,18.15
2022-09-01T19:39:35.291Z,18.16
2022-09-01T19:42:40.669Z,18.17
2022-09-01T19:45:24.163Z,18.17
2022-09-01T19:48:22.268Z,18.15
2022-09-01T19:51:04.298Z,18.13
2022-09-01T19:54:12.693Z,18.11
2022-09-01T19:57:05.437Z,18.08
2022-09-01T20:00:06.512Z,18.04
2022-09-01T20:02:46.991Z,18.00
2022-09-01T20:05:46.410Z,17.96
2022-09-01T20:08:25.073Z,17.92
2022-09-01T20:11:20.446Z,17.90
2022-09-01T20:14:17.658Z,17.86
2022-09-01T20:16:51.692Z,17.83
2022-09-01T20:20:14.052Z,17.80
2022-09-01T20:22:51.299Z,17.80
2022-09-01T20:25:26.289Z,17.79
2022-09-01T20:28:13.408Z,17.77
2022-09-01T20:30:52.396Z,17.76
2022-09-01T20:33:30.921Z,17.75
2022-09-01T20:36:38.741Z,17.74
2022-09-01T20:39:33.080Z,17.75
2022-09-01T20:42:06.645Z,17.75
2022-09-01T20:44:57.727Z,17.75
2022-09-01T20:47:31.423Z,17.74
2022-09-01T20:50:02.802Z,17.75
2022-09-01T20:53:00.083Z,17.74
2022-09-01T20:55:41.839Z,17.72
2022-09-01T20:58:37.125Z,17.69
2022-09-01T21:01:27.815Z,17.67
2022-09-01T21:04:02.004Z,17.64
2022-09-01T21:06:55.788Z,17.63
2022-09-01T21:09:42.280Z,17.60
2022-09-01T21:12:42.646Z,17.55
2022-09-01T21:15:46.069Z,17.52
2022-09-01T21:18:37.315Z,17.50
2022-09-01T21:21:31.487Z,17.48
2022-09-01T21:23:59.892Z,17.45
2022-09-01T21:26:29.925Z,17.44
2022-09-01T21:29:12.408Z,17.43
2022-09-01T21:31:40.808Z,17.42
2022-09-01T21:34:10.358Z,17.40
2022-09-01T21:36:41.072Z,17.38
2022-09-01T21:39:09.385Z,17.39
2022-09-01T21:41:37.801Z,17.38
2022-09-01T21:44:06.788Z,17.37
2022-09-01T21:46:35.460Z,17.33
2022-09-01T21:49:04.460Z,17.30
2022-09-01T21:51:32.734Z,17.28
2022-09-01T21:54:01.038Z,17.27
2022-09-01T21:56:30.024Z,17.26
2022-09-01T21:58:59.561Z,17.25
2022-09-01T22:01:31.487Z,17.24
2022-09-01T22:04:01.299Z,17.24
2022-09-01T22:06:29.560Z,17.23
2022-09-01T22:09:02.345Z,17.22
2022-09-01T22:11:40.833Z,17.20
2022-09-01T22:14:09.864Z,17.20
2022-09-01T22:16:39.249Z,17.19
2022-09-01T22:19:07.552Z,17.16
2022-09-01T22:21:37.147Z,17.15
2022-09-01T22:24:07.242Z,17.14
2022-09-01T22:26:36.326Z,17.13
2022-09-01T22:29:07.448Z,17.14
2022-09-01T22:31:38.743Z,17.13
2022-09-01T22:34:08.011Z,17.12
2022-09-01T22:36:48.159Z,17.12
2022-09-01T22:39:19.083Z,17.10
2022-09-01T22:41:50.603Z,17.09
2022-09-01T22:44:18.893Z,17.08
2022-09-01T22:46:47.144Z,17.07
2022-09-01T22:49:15.427Z,17.06
2022-09-01T22:51:43.875Z,17.06
2022-09-01T22:54:12.256Z,17.05
2022-09-01T22:56:41.936Z,17.04
2022-09-01T22:59:14.335Z,17.02
2022-09-01T23:01:45.987Z,16.99
2022-09-01T23:04:16.484Z,16.96
2022-09-01T23:06:50.364Z,16.93
2022-09-01T23:09:21.046Z,16.90
2022-09-01T23:11:49.693Z,16.85
2022-09-01T23:14:18.787Z,16.83
2022-09-01T23:16:47.664Z,16.78
2022-09-01T23:19:22.440Z,16.73
2022-09-01T23:21:51.763Z,16.68
2022-09-01T23:24:20.993Z,16.64
2022-09-01T23:26:49.900Z,16.59
2022-09-01T23:29:18.607Z,16.54
2022-09-01T23:31:47.100Z,16.50
2022-09-01T23:34:16.955Z,16.49
2022-09-01T23:36:45.612Z,16.49
2022-09-01T23:39:14.517Z,16.49
2022-09-01T23:41:42.936Z,16.50
2022-09-01T23:44:12.656Z,16.50
2022-09-01T23:46:45.399Z,16.50
2022-09-01T23:49:17.056Z,16.51
2022-09-01T23:51:47.646Z,16.51
2022-09-01T23:54:16.165Z,16.50
2022-09-01T23:56:44.639Z,16.49
2022-09-01T23:59:13.062Z,16.47
